Bhumibol Dam, Thaïlande

17:50 ICT le 30 août 2016 (GMT +0700)
Sukhothai | | Change Station

Alt. 177 ft 17.24 °N, 99.82 °E | Updated 50 minutes ago

Partly Cloudy
Partiellement nuageux
88 ° F
Paraît 100 ° F
N
9
Vent Variable Vent de Sud

Aujourd'hui
Haut(e) -- | Bas -- ° F
--% Risque de précip.
Hier
Haut(e) -- | Bas -- ° F
Precip. -- pouce
Pression 29.62 pouce
Visibilité 6.2 Miles terrestres
Nuages Peu 2000 ft
indice de chaleur 100 ° F
Point de rosée 77 ° F
Humidité 70%
Précipitations 0.00 pouce
Profondeur de la couche neigeuse Non disponible.
6:09 AM 6:38 PM
Lune descendante, 4% visible
METAR VTPO 301000Z 17008KT 9999 FEW020 31/25 Q1003
Pression 29.62 pouce
Visibilité 6.2 Miles terrestres
Nuages Peu 2000 ft
indice de chaleur 100 ° F
Point de rosée 77 ° F
Humidité 70%
Précipitations 0.00 pouce
Profondeur de la couche neigeuse Non disponible.
6:09 AM 6:38 PM
Lune descendante, 4% visible
METAR VTPO 301000Z 17008KT 9999 FEW020 31/25 Q1003

10-Day Weather Forecast

No radar image for this location.
×

Almanac

Astronomie

Aug. 30, 2016 Lever Coucher
Temps réel
Crépuscule civil
Crépuscule nautique
Crépuscule astronomique
Lune
Durée de lumière visible
Longueur du jour
Tomorrow will be .
, % of the Moon is Illuminated

Extrêmes aujourd'hui

Country Highs Country Lows

Community

WunderPhotos

Upload Photos

1,935,809 Photos téléchargées !

WunderBlog® & News

Nearby

Qualité de l'air

  Qualité de l'air Indice de la qualité de l'air Polluant
Not available.

Épaisseur de neige

Station Depth Altitude

Activité sismique

Ville Distance Mag. Time & Date
Minimum magnitude displayed is 2.5.

Températures des eaux côtières

Lieu Température

Stations

Stations météo à proximité

Emplacement de la station Température Refroidissement éolien Point de rosée Humidité Vent Precip. Alt. Mise à jour Type